sensor_id;sensor_type;location;lat;lon;timestamp;P1;durP1;ratioP1;P2;durP2;ratioP2
59006;SDS011;44792;52.760;6.726;2022-09-09T00:01:10;9.23;;;5.65;;
59006;SDS011;44792;52.760;6.726;2022-09-09T00:06:33;6.85;;;5.40;;
59006;SDS011;44792;52.760;6.726;2022-09-09T00:11:28;7.78;;;4.60;;
59006;SDS011;44792;52.760;6.726;2022-09-09T00:14:13;10.80;;;5.20;;
59006;SDS011;44792;52.760;6.726;2022-09-09T00:16:55;7.30;;;4.82;;
59006;SDS011;44792;52.760;6.726;2022-09-09T00:19:24;6.25;;;4.25;;
59006;SDS011;44792;52.760;6.726;2022-09-09T00:24:45;8.02;;;5.22;;
59006;SDS011;44792;52.760;6.726;2022-09-09T00:29:53;8.00;;;5.22;;
59006;SDS011;44792;52.760;6.726;2022-09-09T00:32:39;9.95;;;4.75;;
59006;SDS011;44792;52.760;6.726;2022-09-09T00:35:52;7.45;;;4.28;;
59006;SDS011;44792;52.760;6.726;2022-09-09T00:37:56;7.97;;;5.28;;
59006;SDS011;44792;52.760;6.726;2022-09-09T00:40:27;8.43;;;4.65;;
59006;SDS011;44792;52.760;6.726;2022-09-09T00:43:12;7.10;;;4.75;;
59006;SDS011;44792;52.760;6.726;2022-09-09T00:51:13;10.25;;;5.10;;
59006;SDS011;44792;52.760;6.726;2022-09-09T00:53:58;8.48;;;4.93;;
59006;SDS011;44792;52.760;6.726;2022-09-09T00:56:38;9.38;;;5.25;;
59006;SDS011;44792;52.760;6.726;2022-09-09T00:59:32;6.75;;;4.70;;
59006;SDS011;44792;52.760;6.726;2022-09-09T01:02:14;10.23;;;4.97;;
59006;SDS011;44792;52.760;6.726;2022-09-09T01:04:47;11.50;;;5.03;;
59006;SDS011;44792;52.760;6.726;2022-09-09T01:07:21;9.02;;;5.22;;
59006;SDS011;44792;52.760;6.726;2022-09-09T01:09:55;10.43;;;5.20;;
59006;SDS011;44792;52.760;6.726;2022-09-09T01:12:41;7.53;;;5.03;;
59006;SDS011;44792;52.760;6.726;2022-09-09T01:15:17;7.93;;;4.90;;
59006;SDS011;44792;52.760;6.726;2022-09-09T01:18:05;10.50;;;6.43;;
59006;SDS011;44792;52.760;6.726;2022-09-09T01:26:12;7.32;;;5.20;;
59006;SDS011;44792;52.760;6.726;2022-09-09T01:28:40;8.63;;;4.82;;
59006;SDS011;44792;52.760;6.726;2022-09-09T01:31:21;10.13;;;5.70;;
59006;SDS011;44792;52.760;6.726;2022-09-09T01:33:53;9.55;;;5.20;;
59006;SDS011;44792;52.760;6.726;2022-09-09T01:36:26;7.82;;;5.50;;
59006;SDS011;44792;52.760;6.726;2022-09-09T01:39:06;11.90;;;5.82;;
59006;SDS011;44792;52.760;6.726;2022-09-09T01:41:31;10.80;;;5.78;;
59006;SDS011;44792;52.760;6.726;2022-09-09T01:43:57;10.63;;;6.07;;
59006;SDS011;44792;52.760;6.726;2022-09-09T01:46:23;9.75;;;5.75;;
59006;SDS011;44792;52.760;6.726;2022-09-09T01:48:50;8.18;;;5.38;;
59006;SDS011;44792;52.760;6.726;2022-09-09T01:51:17;7.22;;;5.75;;
59006;SDS011;44792;52.760;6.726;2022-09-09T01:53:43;7.20;;;5.90;;
59006;SDS011;44792;52.760;6.726;2022-09-09T01:56:17;6.60;;;5.90;;
59006;SDS011;44792;52.760;6.726;2022-09-09T02:02:00;8.35;;;5.90;;
59006;SDS011;44792;52.760;6.726;2022-09-09T02:04:44;12.73;;;6.35;;
59006;SDS011;44792;52.760;6.726;2022-09-09T02:07:28;8.98;;;5.80;;
59006;SDS011;44792;52.760;6.726;2022-09-09T02:13:11;9.18;;;5.93;;
59006;SDS011;44792;52.760;6.726;2022-09-09T02:15:50;10.85;;;6.05;;
59006;SDS011;44792;52.760;6.726;2022-09-09T02:18:23;9.57;;;5.95;;
59006;SDS011;44792;52.760;6.726;2022-09-09T02:20:53;8.90;;;6.47;;
59006;SDS011;44792;52.760;6.726;2022-09-09T02:23:21;10.60;;;6.47;;
59006;SDS011;44792;52.760;6.726;2022-09-09T02:25:46;8.43;;;6.18;;
59006;SDS011;44792;52.760;6.726;2022-09-09T02:28:16;13.43;;;6.05;;
59006;SDS011;44792;52.760;6.726;2022-09-09T02:30:45;13.30;;;6.75;;
59006;SDS011;44792;52.760;6.726;2022-09-09T02:33:13;11.55;;;6.30;;
59006;SDS011;44792;52.760;6.726;2022-09-09T02:35:39;9.43;;;6.47;;
59006;SDS011;44792;52.760;6.726;2022-09-09T02:38:08;10.95;;;5.60;;
59006;SDS011;44792;52.760;6.726;2022-09-09T02:40:37;11.10;;;6.32;;
59006;SDS011;44792;52.760;6.726;2022-09-09T02:43:03;9.55;;;5.88;;
59006;SDS011;44792;52.760;6.726;2022-09-09T02:45:35;14.02;;;7.32;;
59006;SDS011;44792;52.760;6.726;2022-09-09T02:48:16;10.02;;;6.20;;
59006;SDS011;44792;52.760;6.726;2022-09-09T02:51:00;8.60;;;6.45;;
59006;SDS011;44792;52.760;6.726;2022-09-09T02:53:47;10.13;;;6.13;;
59006;SDS011;44792;52.760;6.726;2022-09-09T02:56:25;6.82;;;5.72;;
59006;SDS011;44792;52.760;6.726;2022-09-09T02:58:55;9.60;;;5.78;;
59006;SDS011;44792;52.760;6.726;2022-09-09T03:01:21;8.75;;;6.50;;
59006;SDS011;44792;52.760;6.726;2022-09-09T03:03:47;8.70;;;5.45;;
59006;SDS011;44792;52.760;6.726;2022-09-09T03:06:13;6.25;;;5.10;;
59006;SDS011;44792;52.760;6.726;2022-09-09T03:08:39;7.90;;;5.55;;
59006;SDS011;44792;52.760;6.726;2022-09-09T03:11:05;8.98;;;5.53;;
59006;SDS011;44792;52.760;6.726;2022-09-09T03:13:30;5.97;;;4.55;;
59006;SDS011;44792;52.760;6.726;2022-09-09T03:15:56;8.85;;;4.50;;
59006;SDS011;44792;52.760;6.726;2022-09-09T03:18:21;7.05;;;5.03;;
59006;SDS011;44792;52.760;6.726;2022-09-09T03:20:48;9.13;;;4.38;;
59006;SDS011;44792;52.760;6.726;2022-09-09T03:23:13;8.15;;;4.38;;
59006;SDS011;44792;52.760;6.726;2022-09-09T03:25:39;5.85;;;3.58;;
59006;SDS011;44792;52.760;6.726;2022-09-09T03:28:11;5.68;;;3.40;;
59006;SDS011;44792;52.760;6.726;2022-09-09T03:30:36;6.55;;;3.20;;
59006;SDS011;44792;52.760;6.726;2022-09-09T03:33:02;4.43;;;2.97;;
59006;SDS011;44792;52.760;6.726;2022-09-09T03:35:28;5.47;;;3.05;;
59006;SDS011;44792;52.760;6.726;2022-09-09T03:37:54;8.90;;;3.08;;
59006;SDS011;44792;52.760;6.726;2022-09-09T03:40:20;5.32;;;2.90;;
59006;SDS011;44792;52.760;6.726;2022-09-09T03:42:46;4.55;;;2.90;;
59006;SDS011;44792;52.760;6.726;2022-09-09T03:45:13;6.80;;;3.30;;
59006;SDS011;44792;52.760;6.726;2022-09-09T03:47:38;10.35;;;3.10;;
59006;SDS011;44792;52.760;6.726;2022-09-09T03:50:04;7.88;;;3.55;;
59006;SDS011;44792;52.760;6.726;2022-09-09T03:52:34;3.88;;;3.05;;
59006;SDS011;44792;52.760;6.726;2022-09-09T03:55:03;5.00;;;3.85;;
59006;SDS011;44792;52.760;6.726;2022-09-09T03:57:29;6.80;;;4.38;;
59006;SDS011;44792;52.760;6.726;2022-09-09T03:59:55;10.77;;;4.82;;
59006;SDS011;44792;52.760;6.726;2022-09-09T04:02:21;8.07;;;5.20;;
59006;SDS011;44792;52.760;6.726;2022-09-09T04:04:47;8.13;;;5.65;;
59006;SDS011;44792;52.760;6.726;2022-09-09T04:07:12;8.00;;;6.18;;
59006;SDS011;44792;52.760;6.726;2022-09-09T04:09:38;11.50;;;6.72;;
59006;SDS011;44792;52.760;6.726;2022-09-09T04:12:04;12.10;;;7.72;;
59006;SDS011;44792;52.760;6.726;2022-09-09T04:14:31;11.60;;;7.47;;
59006;SDS011;44792;52.760;6.726;2022-09-09T04:16:57;9.73;;;7.10;;
59006;SDS011;44792;52.760;6.726;2022-09-09T04:19:24;8.77;;;6.82;;
59006;SDS011;44792;52.760;6.726;2022-09-09T04:21:50;12.13;;;7.15;;
59006;SDS011;44792;52.760;6.726;2022-09-09T04:24:16;11.15;;;5.95;;
59006;SDS011;44792;52.760;6.726;2022-09-09T04:26:42;9.73;;;6.85;;
59006;SDS011;44792;52.760;6.726;2022-09-09T04:29:08;10.50;;;7.10;;
59006;SDS011;44792;52.760;6.726;2022-09-09T04:31:34;8.70;;;6.35;;
59006;SDS011;44792;52.760;6.726;2022-09-09T04:34:00;9.07;;;7.10;;
59006;SDS011;44792;52.760;6.726;2022-09-09T04:36:31;9.75;;;6.65;;
59006;SDS011;44792;52.760;6.726;2022-09-09T04:38:57;7.22;;;5.93;;
59006;SDS011;44792;52.760;6.726;2022-09-09T04:41:22;13.02;;;6.97;;
59006;SDS011;44792;52.760;6.726;2022-09-09T04:43:48;9.85;;;6.18;;
59006;SDS011;44792;52.760;6.726;2022-09-09T04:46:14;10.02;;;6.15;;
59006;SDS011;44792;52.760;6.726;2022-09-09T04:48:42;12.40;;;6.28;;
59006;SDS011;44792;52.760;6.726;2022-09-09T04:51:08;9.95;;;5.82;;
59006;SDS011;44792;52.760;6.726;2022-09-09T04:53:36;8.93;;;6.75;;
59006;SDS011;44792;52.760;6.726;2022-09-09T04:56:03;10.48;;;6.90;;
59006;SDS011;44792;52.760;6.726;2022-09-09T04:58:31;10.07;;;6.80;;
59006;SDS011;44792;52.760;6.726;2022-09-09T05:01:05;12.10;;;6.93;;
59006;SDS011;44792;52.760;6.726;2022-09-09T05:03:35;10.65;;;6.35;;
59006;SDS011;44792;52.760;6.726;2022-09-09T05:06:06;9.88;;;6.80;;
59006;SDS011;44792;52.760;6.726;2022-09-09T05:08:34;9.38;;;6.82;;
59006;SDS011;44792;52.760;6.726;2022-09-09T05:11:04;8.88;;;7.10;;
59006;SDS011;44792;52.760;6.726;2022-09-09T05:13:38;8.63;;;6.60;;
59006;SDS011;44792;52.760;6.726;2022-09-09T05:16:03;14.63;;;7.32;;
59006;SDS011;44792;52.760;6.726;2022-09-09T05:18:29;8.73;;;7.00;;
59006;SDS011;44792;52.760;6.726;2022-09-09T05:20:58;8.13;;;6.93;;
59006;SDS011;44792;52.760;6.726;2022-09-09T05:23:25;9.18;;;6.65;;
59006;SDS011;44792;52.760;6.726;2022-09-09T05:25:57;11.50;;;7.45;;
59006;SDS011;44792;52.760;6.726;2022-09-09T05:30:59;11.32;;;6.70;;
59006;SDS011;44792;52.760;6.726;2022-09-09T05:33:29;9.50;;;6.70;;
59006;SDS011;44792;52.760;6.726;2022-09-09T05:36:02;10.27;;;6.40;;
59006;SDS011;44792;52.760;6.726;2022-09-09T05:38:30;9.68;;;6.95;;
59006;SDS011;44792;52.760;6.726;2022-09-09T05:40:57;9.48;;;6.72;;
59006;SDS011;44792;52.760;6.726;2022-09-09T05:43:23;10.30;;;6.53;;
59006;SDS011;44792;52.760;6.726;2022-09-09T05:45:58;9.07;;;6.13;;
59006;SDS011;44792;52.760;6.726;2022-09-09T05:48:33;12.68;;;6.75;;
59006;SDS011;44792;52.760;6.726;2022-09-09T05:51:12;10.40;;;6.72;;
59006;SDS011;44792;52.760;6.726;2022-09-09T05:53:42;12.57;;;6.63;;
59006;SDS011;44792;52.760;6.726;2022-09-09T05:58:42;7.93;;;6.10;;
59006;SDS011;44792;52.760;6.726;2022-09-09T06:01:09;8.80;;;6.30;;
59006;SDS011;44792;52.760;6.726;2022-09-09T06:03:37;6.50;;;5.40;;
59006;SDS011;44792;52.760;6.726;2022-09-09T06:06:05;7.70;;;6.13;;
59006;SDS011;44792;52.760;6.726;2022-09-09T06:08:33;12.35;;;5.93;;
59006;SDS011;44792;52.760;6.726;2022-09-09T06:11:06;8.48;;;4.97;;
59006;SDS011;44792;52.760;6.726;2022-09-09T06:13:33;7.80;;;6.35;;
59006;SDS011;44792;52.760;6.726;2022-09-09T06:16:00;6.22;;;5.43;;
59006;SDS011;44792;52.760;6.726;2022-09-09T06:18:26;7.28;;;5.25;;
59006;SDS011;44792;52.760;6.726;2022-09-09T06:20:58;8.18;;;5.35;;
59006;SDS011;44792;52.760;6.726;2022-09-09T06:23:31;10.30;;;5.07;;
59006;SDS011;44792;52.760;6.726;2022-09-09T06:26:07;6.82;;;5.32;;
59006;SDS011;44792;52.760;6.726;2022-09-09T06:28:38;7.78;;;5.15;;
59006;SDS011;44792;52.760;6.726;2022-09-09T06:31:05;9.00;;;5.15;;
59006;SDS011;44792;52.760;6.726;2022-09-09T06:33:33;7.72;;;5.35;;
59006;SDS011;44792;52.760;6.726;2022-09-09T06:36:01;11.45;;;5.47;;
59006;SDS011;44792;52.760;6.726;2022-09-09T06:38:28;7.72;;;4.97;;
59006;SDS011;44792;52.760;6.726;2022-09-09T06:40:55;10.95;;;5.10;;
59006;SDS011;44792;52.760;6.726;2022-09-09T06:43:23;7.95;;;6.38;;
59006;SDS011;44792;52.760;6.726;2022-09-09T06:45:53;6.90;;;5.05;;
59006;SDS011;44792;52.760;6.726;2022-09-09T06:48:19;8.23;;;5.03;;
59006;SDS011;44792;52.760;6.726;2022-09-09T06:50:45;6.88;;;4.90;;
59006;SDS011;44792;52.760;6.726;2022-09-09T06:53:11;7.57;;;5.25;;
59006;SDS011;44792;52.760;6.726;2022-09-09T06:55:36;10.50;;;5.22;;
59006;SDS011;44792;52.760;6.726;2022-09-09T06:58:02;9.75;;;5.45;;
59006;SDS011;44792;52.760;6.726;2022-09-09T07:00:32;7.65;;;5.68;;
59006;SDS011;44792;52.760;6.726;2022-09-09T07:02:58;8.18;;;5.40;;
59006;SDS011;44792;52.760;6.726;2022-09-09T07:05:23;9.30;;;5.95;;
59006;SDS011;44792;52.760;6.726;2022-09-09T07:07:50;15.60;;;5.63;;
59006;SDS011;44792;52.760;6.726;2022-09-09T07:10:16;7.35;;;5.47;;
59006;SDS011;44792;52.760;6.726;2022-09-09T07:12:42;7.75;;;5.53;;
59006;SDS011;44792;52.760;6.726;2022-09-09T07:15:08;10.27;;;5.82;;
59006;SDS011;44792;52.760;6.726;2022-09-09T07:17:34;7.72;;;5.57;;
59006;SDS011;44792;52.760;6.726;2022-09-09T07:20:00;11.85;;;6.40;;
59006;SDS011;44792;52.760;6.726;2022-09-09T07:22:27;11.43;;;5.43;;
59006;SDS011;44792;52.760;6.726;2022-09-09T07:24:53;10.07;;;5.55;;
59006;SDS011;44792;52.760;6.726;2022-09-09T07:27:19;9.82;;;5.20;;
59006;SDS011;44792;52.760;6.726;2022-09-09T07:29:44;9.15;;;4.85;;
59006;SDS011;44792;52.760;6.726;2022-09-09T07:32:10;19.70;;;5.47;;
59006;SDS011;44792;52.760;6.726;2022-09-09T07:34:36;12.25;;;5.43;;
59006;SDS011;44792;52.760;6.726;2022-09-09T07:37:01;10.52;;;5.57;;
59006;SDS011;44792;52.760;6.726;2022-09-09T07:39:27;8.40;;;4.72;;
59006;SDS011;44792;52.760;6.726;2022-09-09T07:41:53;6.72;;;5.18;;
59006;SDS011;44792;52.760;6.726;2022-09-09T07:44:22;9.65;;;5.22;;
59006;SDS011;44792;52.760;6.726;2022-09-09T07:46:52;11.80;;;5.90;;
59006;SDS011;44792;52.760;6.726;2022-09-09T07:49:17;11.95;;;5.18;;
59006;SDS011;44792;52.760;6.726;2022-09-09T07:51:44;10.68;;;5.15;;
59006;SDS011;44792;52.760;6.726;2022-09-09T07:54:13;9.57;;;5.47;;
59006;SDS011;44792;52.760;6.726;2022-09-09T07:56:40;14.95;;;5.68;;
59006;SDS011;44792;52.760;6.726;2022-09-09T07:59:06;12.52;;;5.57;;
59006;SDS011;44792;52.760;6.726;2022-09-09T08:01:34;7.90;;;5.40;;
59006;SDS011;44792;52.760;6.726;2022-09-09T08:04:08;18.35;;;5.90;;
59006;SDS011;44792;52.760;6.726;2022-09-09T08:06:42;12.20;;;6.38;;
59006;SDS011;44792;52.760;6.726;2022-09-09T08:09:11;11.32;;;5.53;;
59006;SDS011;44792;52.760;6.726;2022-09-09T08:11:38;11.63;;;6.18;;
59006;SDS011;44792;52.760;6.726;2022-09-09T08:14:05;9.45;;;5.15;;
59006;SDS011;44792;52.760;6.726;2022-09-09T08:16:33;8.95;;;5.50;;
59006;SDS011;44792;52.760;6.726;2022-09-09T08:19:02;9.95;;;5.65;;
59006;SDS011;44792;52.760;6.726;2022-09-09T08:21:29;9.32;;;6.05;;
59006;SDS011;44792;52.760;6.726;2022-09-09T08:23:57;8.48;;;5.40;;
59006;SDS011;44792;52.760;6.726;2022-09-09T08:26:24;11.73;;;4.82;;
59006;SDS011;44792;52.760;6.726;2022-09-09T08:28:56;9.85;;;5.05;;
59006;SDS011;44792;52.760;6.726;2022-09-09T08:31:31;9.63;;;5.00;;
59006;SDS011;44792;52.760;6.726;2022-09-09T08:34:24;12.50;;;4.93;;
59006;SDS011;44792;52.760;6.726;2022-09-09T08:36:51;11.55;;;4.93;;
59006;SDS011;44792;52.760;6.726;2022-09-09T08:39:18;9.60;;;4.50;;
59006;SDS011;44792;52.760;6.726;2022-09-09T08:45:02;13.60;;;4.53;;
59006;SDS011;44792;52.760;6.726;2022-09-09T08:47:31;8.45;;;5.43;;
59006;SDS011;44792;52.760;6.726;2022-09-09T08:55:41;11.18;;;4.70;;
59006;SDS011;44792;52.760;6.726;2022-09-09T08:58:20;8.43;;;4.57;;
59006;SDS011;44792;52.760;6.726;2022-09-09T09:01:00;10.13;;;4.07;;
59006;SDS011;44792;52.760;6.726;2022-09-09T09:06:06;9.43;;;3.95;;
59006;SDS011;44792;52.760;6.726;2022-09-09T09:12:06;10.73;;;4.47;;
59006;SDS011;44792;52.760;6.726;2022-09-09T09:14:59;10.52;;;4.43;;
59006;SDS011;44792;52.760;6.726;2022-09-09T09:17:27;14.07;;;3.92;;
59006;SDS011;44792;52.760;6.726;2022-09-09T09:19:56;15.95;;;4.13;;
59006;SDS011;44792;52.760;6.726;2022-09-09T09:22:39;14.65;;;7.03;;
59006;SDS011;44792;52.760;6.726;2022-09-09T09:25:20;20.67;;;10.60;;
59006;SDS011;44792;52.760;6.726;2022-09-09T09:27:54;16.50;;;10.35;;
59006;SDS011;44792;52.760;6.726;2022-09-09T09:36:03;16.80;;;4.53;;
59006;SDS011;44792;52.760;6.726;2022-09-09T09:38:33;10.73;;;3.70;;
59006;SDS011;44792;52.760;6.726;2022-09-09T09:40:59;11.95;;;3.33;;
59006;SDS011;44792;52.760;6.726;2022-09-09T09:43:29;8.40;;;2.70;;
59006;SDS011;44792;52.760;6.726;2022-09-09T09:45:57;8.02;;;2.85;;
59006;SDS011;44792;52.760;6.726;2022-09-09T09:48:24;9.40;;;3.53;;
59006;SDS011;44792;52.760;6.726;2022-09-09T09:50:57;9.43;;;3.45;;
59006;SDS011;44792;52.760;6.726;2022-09-09T09:53:26;12.93;;;3.08;;
59006;SDS011;44792;52.760;6.726;2022-09-09T09:55:55;10.48;;;3.40;;
59006;SDS011;44792;52.760;6.726;2022-09-09T09:58:27;8.38;;;2.83;;
59006;SDS011;44792;52.760;6.726;2022-09-09T10:00:57;9.45;;;2.60;;
59006;SDS011;44792;52.760;6.726;2022-09-09T10:03:28;14.82;;;2.50;;
59006;SDS011;44792;52.760;6.726;2022-09-09T10:06:02;16.15;;;2.42;;
59006;SDS011;44792;52.760;6.726;2022-09-09T10:08:28;9.70;;;2.25;;
59006;SDS011;44792;52.760;6.726;2022-09-09T10:11:00;12.98;;;2.50;;
59006;SDS011;44792;52.760;6.726;2022-09-09T10:13:29;9.43;;;2.30;;
59006;SDS011;44792;52.760;6.726;2022-09-09T10:16:19;10.02;;;2.75;;
59006;SDS011;44792;52.760;6.726;2022-09-09T10:21:42;14.38;;;3.50;;
59006;SDS011;44792;52.760;6.726;2022-09-09T10:24:33;11.98;;;2.65;;
59006;SDS011;44792;52.760;6.726;2022-09-09T10:30:09;7.00;;;2.03;;
59006;SDS011;44792;52.760;6.726;2022-09-09T10:35:52;8.93;;;2.22;;
59006;SDS011;44792;52.760;6.726;2022-09-09T10:38:42;6.78;;;2.17;;
59006;SDS011;44792;52.760;6.726;2022-09-09T10:41:23;6.20;;;1.90;;
59006;SDS011;44792;52.760;6.726;2022-09-09T10:44:22;9.43;;;2.40;;
59006;SDS011;44792;52.760;6.726;2022-09-09T10:52:32;5.78;;;1.75;;
59006;SDS011;44792;52.760;6.726;2022-09-09T10:57:41;6.45;;;1.42;;
59006;SDS011;44792;52.760;6.726;2022-09-09T11:00:22;13.13;;;1.80;;
59006;SDS011;44792;52.760;6.726;2022-09-09T11:02:58;12.65;;;1.98;;
59006;SDS011;44792;52.760;6.726;2022-09-09T11:05:39;8.60;;;1.58;;
59006;SDS011;44792;52.760;6.726;2022-09-09T11:10:48;9.10;;;1.95;;
59006;SDS011;44792;52.760;6.726;2022-09-09T11:13:25;5.22;;;1.80;;
59006;SDS011;44792;52.760;6.726;2022-09-09T11:22:08;5.75;;;1.85;;
59006;SDS011;44792;52.760;6.726;2022-09-09T11:30:24;8.83;;;1.73;;
59006;SDS011;44792;52.760;6.726;2022-09-09T11:33:16;7.47;;;1.80;;
59006;SDS011;44792;52.760;6.726;2022-09-09T11:38:26;8.23;;;2.63;;
59006;SDS011;44792;52.760;6.726;2022-09-09T11:41:02;7.65;;;2.35;;
59006;SDS011;44792;52.760;6.726;2022-09-09T11:43:45;7.97;;;1.83;;
59006;SDS011;44792;52.760;6.726;2022-09-09T11:46:21;5.18;;;1.33;;
59006;SDS011;44792;52.760;6.726;2022-09-09T11:48:59;8.77;;;1.30;;
59006;SDS011;44792;52.760;6.726;2022-09-09T11:51:27;9.80;;;1.70;;
59006;SDS011;44792;52.760;6.726;2022-09-09T11:59:19;7.28;;;1.83;;
59006;SDS011;44792;52.760;6.726;2022-09-09T12:02:08;7.05;;;1.55;;
59006;SDS011;44792;52.760;6.726;2022-09-09T12:04:55;9.70;;;1.67;;
59006;SDS011;44792;52.760;6.726;2022-09-09T12:12:33;5.28;;;1.50;;
59006;SDS011;44792;52.760;6.726;2022-09-09T12:17:45;5.37;;;1.57;;
59006;SDS011;44792;52.760;6.726;2022-09-09T12:28:17;4.97;;;1.50;;
59006;SDS011;44792;52.760;6.726;2022-09-09T12:30:48;7.88;;;1.55;;
59006;SDS011;44792;52.760;6.726;2022-09-09T12:33:23;6.57;;;1.92;;
59006;SDS011;44792;52.760;6.726;2022-09-09T12:35:58;8.30;;;1.60;;
59006;SDS011;44792;52.760;6.726;2022-09-09T12:38:39;5.70;;;1.60;;
59006;SDS011;44792;52.760;6.726;2022-09-09T12:41:06;6.18;;;1.60;;
59006;SDS011;44792;52.760;6.726;2022-09-09T12:43:44;7.97;;;1.40;;
59006;SDS011;44792;52.760;6.726;2022-09-09T12:46:12;6.10;;;1.48;;
59006;SDS011;44792;52.760;6.726;2022-09-09T12:48:51;6.85;;;1.52;;
59006;SDS011;44792;52.760;6.726;2022-09-09T12:51:19;8.63;;;1.77;;
59006;SDS011;44792;52.760;6.726;2022-09-09T12:53:50;9.50;;;1.80;;
59006;SDS011;44792;52.760;6.726;2022-09-09T12:56:20;5.95;;;1.23;;
59006;SDS011;44792;52.760;6.726;2022-09-09T12:58:49;7.95;;;1.92;;
59006;SDS011;44792;52.760;6.726;2022-09-09T13:01:24;3.08;;;1.23;;
59006;SDS011;44792;52.760;6.726;2022-09-09T13:03:49;5.55;;;1.40;;
59006;SDS011;44792;52.760;6.726;2022-09-09T13:06:27;7.05;;;1.40;;
59006;SDS011;44792;52.760;6.726;2022-09-09T13:08:54;5.85;;;1.30;;
59006;SDS011;44792;52.760;6.726;2022-09-09T13:11:47;6.22;;;1.75;;
59006;SDS011;44792;52.760;6.726;2022-09-09T13:14:17;9.40;;;1.85;;
59006;SDS011;44792;52.760;6.726;2022-09-09T13:16:59;9.95;;;1.80;;
59006;SDS011;44792;52.760;6.726;2022-09-09T13:19:26;4.63;;;1.48;;
59006;SDS011;44792;52.760;6.726;2022-09-09T13:21:56;8.32;;;1.70;;
59006;SDS011;44792;52.760;6.726;2022-09-09T13:24:30;8.32;;;1.70;;
59006;SDS011;44792;52.760;6.726;2022-09-09T13:26:58;3.28;;;1.73;;
59006;SDS011;44792;52.760;6.726;2022-09-09T13:29:29;4.00;;;1.40;;
59006;SDS011;44792;52.760;6.726;2022-09-09T13:34:57;5.07;;;1.48;;
59006;SDS011;44792;52.760;6.726;2022-09-09T13:40:03;4.60;;;1.38;;
59006;SDS011;44792;52.760;6.726;2022-09-09T13:42:35;5.93;;;1.48;;
59006;SDS011;44792;52.760;6.726;2022-09-09T13:45:05;3.50;;;1.20;;
59006;SDS011;44792;52.760;6.726;2022-09-09T13:47:32;6.25;;;1.73;;
59006;SDS011;44792;52.760;6.726;2022-09-09T13:52:56;2.58;;;1.33;;
59006;SDS011;44792;52.760;6.726;2022-09-09T13:55:24;2.78;;;1.05;;
59006;SDS011;44792;52.760;6.726;2022-09-09T13:57:54;4.05;;;1.20;;
59006;SDS011;44792;52.760;6.726;2022-09-09T14:00:22;5.32;;;1.00;;
59006;SDS011;44792;52.760;6.726;2022-09-09T14:02:49;4.90;;;1.30;;
59006;SDS011;44792;52.760;6.726;2022-09-09T14:05:15;4.30;;;1.10;;
59006;SDS011;44792;52.760;6.726;2022-09-09T14:07:41;8.07;;;2.30;;
59006;SDS011;44792;52.760;6.726;2022-09-09T14:10:08;5.25;;;1.60;;
59006;SDS011;44792;52.760;6.726;2022-09-09T14:12:34;11.65;;;1.88;;
59006;SDS011;44792;52.760;6.726;2022-09-09T14:15:01;8.75;;;1.75;;
59006;SDS011;44792;52.760;6.726;2022-09-09T14:17:27;6.47;;;1.80;;
59006;SDS011;44792;52.760;6.726;2022-09-09T14:19:56;6.20;;;2.03;;
59006;SDS011;44792;52.760;6.726;2022-09-09T14:22:22;8.95;;;1.65;;
59006;SDS011;44792;52.760;6.726;2022-09-09T14:24:48;5.45;;;1.80;;
59006;SDS011;44792;52.760;6.726;2022-09-09T14:27:14;3.10;;;1.45;;
59006;SDS011;44792;52.760;6.726;2022-09-09T14:29:40;4.75;;;1.38;;
59006;SDS011;44792;52.760;6.726;2022-09-09T14:32:07;8.63;;;1.20;;
59006;SDS011;44792;52.760;6.726;2022-09-09T14:34:32;4.57;;;1.80;;
59006;SDS011;44792;52.760;6.726;2022-09-09T14:36:58;3.03;;;1.52;;
59006;SDS011;44792;52.760;6.726;2022-09-09T14:39:24;3.50;;;1.48;;
59006;SDS011;44792;52.760;6.726;2022-09-09T14:41:49;3.72;;;1.40;;
59006;SDS011;44792;52.760;6.726;2022-09-09T14:44:15;7.45;;;1.90;;
59006;SDS011;44792;52.760;6.726;2022-09-09T14:46:41;8.38;;;1.98;;
59006;SDS011;44792;52.760;6.726;2022-09-09T14:49:07;4.22;;;2.00;;
59006;SDS011;44792;52.760;6.726;2022-09-09T14:51:35;3.50;;;1.90;;
59006;SDS011;44792;52.760;6.726;2022-09-09T14:54:01;3.92;;;2.00;;
59006;SDS011;44792;52.760;6.726;2022-09-09T14:56:28;4.63;;;1.60;;
59006;SDS011;44792;52.760;6.726;2022-09-09T14:58:56;5.90;;;1.83;;
59006;SDS011;44792;52.760;6.726;2022-09-09T15:01:24;6.00;;;1.70;;
59006;SDS011;44792;52.760;6.726;2022-09-09T15:03:55;7.35;;;1.80;;
59006;SDS011;44792;52.760;6.726;2022-09-09T15:06:23;5.10;;;1.90;;
59006;SDS011;44792;52.760;6.726;2022-09-09T15:08:51;5.00;;;1.88;;
59006;SDS011;44792;52.760;6.726;2022-09-09T15:11:18;3.75;;;1.95;;
59006;SDS011;44792;52.760;6.726;2022-09-09T15:13:45;4.68;;;1.75;;
59006;SDS011;44792;52.760;6.726;2022-09-09T15:16:13;3.40;;;1.67;;
59006;SDS011;44792;52.760;6.726;2022-09-09T15:18:40;7.63;;;2.00;;
59006;SDS011;44792;52.760;6.726;2022-09-09T15:21:13;5.03;;;2.13;;
59006;SDS011;44792;52.760;6.726;2022-09-09T15:23:41;4.38;;;2.20;;
59006;SDS011;44792;52.760;6.726;2022-09-09T15:26:07;5.88;;;2.10;;
59006;SDS011;44792;52.760;6.726;2022-09-09T15:28:35;4.60;;;1.92;;
59006;SDS011;44792;52.760;6.726;2022-09-09T15:31:04;7.15;;;2.38;;
59006;SDS011;44792;52.760;6.726;2022-09-09T15:33:39;6.03;;;1.90;;
59006;SDS011;44792;52.760;6.726;2022-09-09T15:36:24;6.55;;;2.22;;
59006;SDS011;44792;52.760;6.726;2022-09-09T15:38:51;4.18;;;2.17;;
59006;SDS011;44792;52.760;6.726;2022-09-09T15:41:17;5.35;;;2.15;;
59006;SDS011;44792;52.760;6.726;2022-09-09T15:43:45;5.43;;;2.15;;
59006;SDS011;44792;52.760;6.726;2022-09-09T15:46:22;4.40;;;2.28;;
59006;SDS011;44792;52.760;6.726;2022-09-09T15:48:52;2.80;;;1.80;;
59006;SDS011;44792;52.760;6.726;2022-09-09T15:51:19;7.93;;;2.53;;
59006;SDS011;44792;52.760;6.726;2022-09-09T15:53:45;3.53;;;1.90;;
59006;SDS011;44792;52.760;6.726;2022-09-09T15:56:11;4.00;;;1.65;;
59006;SDS011;44792;52.760;6.726;2022-09-09T15:58:37;7.35;;;1.90;;
59006;SDS011;44792;52.760;6.726;2022-09-09T16:01:06;7.78;;;2.17;;
59006;SDS011;44792;52.760;6.726;2022-09-09T16:03:34;7.85;;;2.00;;
59006;SDS011;44792;52.760;6.726;2022-09-09T16:06:04;5.43;;;2.20;;
59006;SDS011;44792;52.760;6.726;2022-09-09T16:11:04;5.90;;;2.22;;
59006;SDS011;44792;52.760;6.726;2022-09-09T16:13:36;4.97;;;2.53;;
59006;SDS011;44792;52.760;6.726;2022-09-09T16:16:02;5.07;;;2.17;;
59006;SDS011;44792;52.760;6.726;2022-09-09T16:18:45;3.75;;;1.90;;
59006;SDS011;44792;52.760;6.726;2022-09-09T16:21:13;5.60;;;2.17;;
59006;SDS011;44792;52.760;6.726;2022-09-09T16:23:44;6.03;;;2.70;;
59006;SDS011;44792;52.760;6.726;2022-09-09T16:26:11;3.22;;;1.88;;
59006;SDS011;44792;52.760;6.726;2022-09-09T16:28:38;5.57;;;2.00;;
59006;SDS011;44792;52.760;6.726;2022-09-09T16:31:08;4.82;;;1.95;;
59006;SDS011;44792;52.760;6.726;2022-09-09T16:33:39;6.10;;;2.53;;
59006;SDS011;44792;52.760;6.726;2022-09-09T16:36:07;5.40;;;2.15;;
59006;SDS011;44792;52.760;6.726;2022-09-09T16:38:35;7.25;;;2.80;;
59006;SDS011;44792;52.760;6.726;2022-09-09T16:41:02;4.05;;;2.70;;
59006;SDS011;44792;52.760;6.726;2022-09-09T16:43:29;3.30;;;2.28;;
59006;SDS011;44792;52.760;6.726;2022-09-09T16:45:55;12.45;;;2.38;;
59006;SDS011;44792;52.760;6.726;2022-09-09T16:48:21;7.53;;;2.67;;
59006;SDS011;44792;52.760;6.726;2022-09-09T16:50:46;5.53;;;2.60;;
59006;SDS011;44792;52.760;6.726;2022-09-09T16:53:13;7.88;;;2.40;;
59006;SDS011;44792;52.760;6.726;2022-09-09T16:55:39;6.10;;;2.28;;
59006;SDS011;44792;52.760;6.726;2022-09-09T16:58:06;5.45;;;2.00;;
59006;SDS011;44792;52.760;6.726;2022-09-09T17:00:38;3.60;;;1.83;;
59006;SDS011;44792;52.760;6.726;2022-09-09T17:03:03;3.25;;;1.67;;